Time;durP1;ratioP1;P1;durP2;ratioP2;P2;SDS_P1;SDS_P2;PMS_P1;PMS_P2;Temp;Humidity;BMP_temperature;BMP_pressure;BME280_temperature;BME280_humidity;BME280_pressure;Samples;Min_cycle;Max_cycle;Signal;HPM_P1;HPM_P2
2021/12/09 00:01:41;;;;;;;28.80;14.30;;;;;;;-2.14;67.54;99668.59;126447;1314;108695;-77
2021/12/09 00:04:46;;;;;;;28.00;14.40;;;;;;;-2.18;67.57;99663.94;126482;1310;107387;-77
2021/12/09 00:07:53;;;;;;;31.80;15.30;;;;;;;-2.21;67.77;99669.55;126651;1313;106732;-77
2021/12/09 00:11:01;;;;;;;30.00;15.40;;;;;;;-2.27;67.89;99669.52;126612;1313;108727;-77
2021/12/09 00:14:07;;;;;;;29.70;15.60;;;;;;;-2.30;67.78;99658.74;126840;1316;108812;-74
2021/12/09 00:17:12;;;;;;;33.50;16.30;;;;;;;-2.30;68.10;99659.89;126895;1310;108892;-74
2021/12/09 00:20:18;;;;;;;36.20;17.30;;;;;;;-2.28;68.02;99670.45;126797;1310;108895;-74
2021/12/09 00:23:24;;;;;;;30.50;15.70;;;;;;;-2.27;67.68;99674.73;126819;1311;109916;-75
2021/12/09 00:26:29;;;;;;;34.40;17.00;;;;;;;-2.28;67.99;99677.75;126804;1311;108845;-76
2021/12/09 00:29:35;;;;;;;32.30;17.40;;;;;;;-2.30;68.08;99683.09;126529;1311;109106;-74
2021/12/09 00:32:42;;;;;;;32.50;17.00;;;;;;;-2.32;67.95;99680.76;126554;1313;108650;-73
2021/12/09 00:35:54;;;;;;;36.90;19.00;;;;;;;-2.34;67.93;99671.11;126856;1310;107742;-74
2021/12/09 00:39:00;;;;;;;38.20;18.40;;;;;;;-2.37;67.93;99675.27;126861;1310;108792;-75
2021/12/09 00:42:07;;;;;;;34.60;17.50;;;;;;;-2.37;67.78;99667.46;126412;1311;108965;-74
2021/12/09 00:45:12;;;;;;;33.80;17.40;;;;;;;-2.35;67.97;99663.84;126566;1316;108902;-73
2021/12/09 00:48:18;;;;;;;37.00;18.70;;;;;;;-2.30;68.18;99658.91;126633;1314;108975;-75
2021/12/09 00:51:23;;;;;;;37.30;18.10;;;;;;;-2.25;68.03;99655.63;126622;1310;108949;-75
2021/12/09 00:54:29;;;;;;;35.80;16.30;;;;;;;-2.17;68.09;99652.94;126852;1310;108833;-74
2021/12/09 00:57:35;;;;;;;36.30;17.70;;;;;;;-2.07;68.00;99650.45;126848;1314;108810;-75
2021/12/09 01:00:41;;;;;;;34.20;17.50;;;;;;;-2.00;68.11;99645.66;126595;1311;108721;-76
2021/12/09 01:03:46;;;;;;;32.10;16.40;;;;;;;-1.97;68.00;99642.85;126540;1310;108666;-75
2021/12/09 01:06:52;;;;;;;35.70;17.50;;;;;;;-1.96;67.74;99643.52;126354;1310;108960;-76
2021/12/09 01:09:58;;;;;;;34.40;17.10;;;;;;;-1.98;67.91;99647.48;126415;1314;106891;-76
2021/12/09 01:13:04;;;;;;;33.10;17.50;;;;;;;-2.06;67.76;99644.45;126464;1310;108744;-76
2021/12/09 01:16:10;;;;;;;32.60;16.50;;;;;;;-2.16;67.68;99642.23;126466;1310;108725;-76
2021/12/09 01:19:16;;;;;;;33.20;16.60;;;;;;;-2.25;67.63;99638.91;126776;1314;108828;-75
2021/12/09 01:22:30;;;;;;;32.90;16.60;;;;;;;-2.32;67.95;99638.95;126856;1314;106615;-75
2021/12/09 01:25:37;;;;;;;31.80;16.40;;;;;;;-2.38;68.21;99631.27;126569;1310;108650;-75
2021/12/09 01:28:47;;;;;;;32.30;16.70;;;;;;;-2.41;67.99;99621.85;126904;1310;108733;-75
2021/12/09 01:31:59;;;;;;;35.10;17.30;;;;;;;-2.48;68.00;99623.33;126877;1314;108719;-75
2021/12/09 01:35:05;;;;;;;38.50;19.30;;;;;;;-2.54;68.11;99627.14;126817;1310;108912;-76
2021/12/09 01:38:13;;;;;;;38.30;18.60;;;;;;;-2.59;68.30;99635.92;126829;1316;108768;-76
2021/12/09 01:41:19;;;;;;;33.50;17.30;;;;;;;-2.62;68.41;99632.24;126536;1311;108845;-76
2021/12/09 01:44:24;;;;;;;36.70;18.30;;;;;;;-2.65;68.53;99634.17;126543;1310;108870;-76
2021/12/09 01:47:30;;;;;;;43.30;20.70;;;;;;;-2.67;68.54;99629.06;126859;1311;108186;-76
2021/12/09 01:50:36;;;;;;;41.00;19.30;;;;;;;-2.70;68.57;99623.48;126801;1310;108888;-75
2021/12/09 01:53:41;;;;;;;36.60;17.70;;;;;;;-2.68;68.64;99615.37;126387;1310;108927;-75
2021/12/09 01:56:47;;;;;;;37.80;18.30;;;;;;;-2.59;68.58;99618.68;126741;1314;106953;-75
2021/12/09 01:59:53;;;;;;;34.80;16.50;;;;;;;-2.48;68.41;99616.17;126524;1310;107741;-75
2021/12/09 02:02:58;;;;;;;36.80;17.10;;;;;;;-2.39;68.62;99604.69;126627;1310;108980;-76
2021/12/09 02:06:04;;;;;;;36.90;18.40;;;;;;;-2.32;68.25;99595.27;126367;1313;108629;-75
2021/12/09 02:09:11;;;;;;;35.80;18.10;;;;;;;-2.28;68.27;99594.83;126434;1311;108208;-75
2021/12/09 02:12:16;;;;;;;37.70;18.00;;;;;;;-2.30;68.45;99596.16;126733;1310;108739;-76
2021/12/09 02:15:25;;;;;;;35.50;16.70;;;;;;;-2.26;68.29;99587.23;126365;1311;108811;-75
2021/12/09 02:18:31;;;;;;;34.50;18.40;;;;;;;-2.23;68.40;99594.19;126788;1317;108760;-74
2021/12/09 02:21:37;;;;;;;38.50;18.00;;;;;;;-2.24;68.39;99588.51;126554;1310;108174;-75
2021/12/09 02:24:43;;;;;;;35.30;17.70;;;;;;;-2.24;68.46;99588.70;126519;1314;108796;-74
2021/12/09 02:27:49;;;;;;;38.90;18.20;;;;;;;-2.27;68.44;99589.55;126572;1310;108897;-76
2021/12/09 02:30:55;;;;;;;39.00;18.70;;;;;;;-2.28;68.31;99580.17;126378;1311;108729;-74
2021/12/09 02:34:01;;;;;;;37.10;18.40;;;;;;;-2.35;68.49;99584.42;126437;1309;108994;-74
2021/12/09 02:37:09;;;;;;;35.20;17.60;;;;;;;-2.40;68.53;99585.58;126442;1310;107307;-76
2021/12/09 02:40:15;;;;;;;36.20;16.90;;;;;;;-2.43;68.62;99579.11;126361;1310;107511;-74
2021/12/09 02:43:29;;;;;;;33.80;16.60;;;;;;;-2.44;68.39;99576.05;126476;1311;108773;-74
2021/12/09 02:46:38;;;;;;;33.80;16.70;;;;;;;-2.46;68.65;99577.89;126465;1310;108752;-72
2021/12/09 02:49:43;;;;;;;34.70;17.00;;;;;;;-2.50;68.79;99574.65;126526;1310;108900;-74
2021/12/09 02:52:51;;;;;;;42.80;19.80;;;;;;;-2.51;68.69;99580.59;126626;1310;108831;-71
2021/12/09 02:55:56;;;;;;;38.00;17.80;;;;;;;-2.53;68.51;99579.35;126407;1309;108815;-74
2021/12/09 02:59:02;;;;;;;34.10;16.00;;;;;;;-2.53;68.72;99583.53;126414;1310;108740;-74
2021/12/09 03:02:10;;;;;;;33.00;16.10;;;;;;;-2.51;68.60;99574.69;126499;1310;108754;-73
2021/12/09 03:05:16;;;;;;;33.20;15.20;;;;;;;-2.50;68.78;99572.36;126431;1310;108889;-73
2021/12/09 03:08:33;;;;;;;32.70;16.50;;;;;;;-2.46;68.54;99566.07;126637;1310;108704;-73
2021/12/09 03:11:39;;;;;;;33.30;16.30;;;;;;;-2.41;68.60;99561.76;126376;1310;108698;-73
2021/12/09 03:14:44;;;;;;;33.80;17.60;;;;;;;-2.42;68.44;99569.63;126384;1311;108884;-75
2021/12/09 03:17:50;;;;;;;32.30;15.80;;;;;;;-2.49;68.51;99576.32;126555;1310;107110;-73
2021/12/09 03:20:56;;;;;;;33.90;16.40;;;;;;;-2.52;68.47;99575.27;126658;1314;107624;-75
2021/12/09 03:24:03;;;;;;;33.50;17.20;;;;;;;-2.53;68.53;99572.04;126483;1310;108869;-75
2021/12/09 03:27:10;;;;;;;33.40;16.10;;;;;;;-2.55;68.58;99578.77;126469;1310;108599;-73
2021/12/09 03:30:20;;;;;;;32.90;16.70;;;;;;;-2.57;68.74;99582.52;126886;1311;108623;-73
2021/12/09 03:33:26;;;;;;;33.40;16.50;;;;;;;-2.58;68.88;99594.95;126983;1310;108775;-74
2021/12/09 03:36:31;;;;;;;34.30;16.80;;;;;;;-2.65;68.65;99598.62;126501;1310;108681;-74
2021/12/09 03:39:41;;;;;;;35.20;17.50;;;;;;;-2.71;68.87;99598.64;126892;1311;107375;-75
2021/12/09 03:42:47;;;;;;;32.10;16.00;;;;;;;-2.71;69.11;99601.08;126984;1311;108709;-78
2021/12/09 03:45:55;;;;;;;34.60;17.80;;;;;;;-2.72;68.99;99599.90;127044;1314;108794;-75
2021/12/09 03:49:00;;;;;;;39.10;18.30;;;;;;;-2.74;69.04;99606.29;126924;1310;108921;-72
2021/12/09 03:52:07;;;;;;;36.10;17.40;;;;;;;-2.74;69.00;99600.72;126989;1311;108772;-77
2021/12/09 03:55:13;;;;;;;37.50;17.30;;;;;;;-2.70;69.21;99603.30;126879;1310;108720;-78
2021/12/09 03:58:19;;;;;;;36.40;16.60;;;;;;;-2.60;69.37;99607.42;126727;1310;108970;-76
2021/12/09 04:01:25;;;;;;;33.10;15.30;;;;;;;-2.47;69.15;99608.78;126611;1311;109535;-77
2021/12/09 04:04:31;;;;;;;36.10;17.10;;;;;;;-2.35;69.33;99608.14;126548;1310;108868;-77
2021/12/09 04:07:36;;;;;;;34.80;17.10;;;;;;;-2.28;69.32;99615.95;126824;1310;109208;-74
2021/12/09 04:10:42;;;;;;;35.80;17.60;;;;;;;-2.32;69.37;99620.50;126693;1310;108762;-77
2021/12/09 04:13:48;;;;;;;35.50;17.50;;;;;;;-2.32;69.46;99614.44;126583;1311;108721;-75
2021/12/09 04:16:53;;;;;;;37.20;17.20;;;;;;;-2.32;69.61;99611.94;126993;1311;107071;-76
2021/12/09 04:19:59;;;;;;;34.60;16.40;;;;;;;-2.37;69.45;99603.35;126751;1310;108724;-76
2021/12/09 04:23:05;;;;;;;37.10;17.90;;;;;;;-2.38;69.61;99610.71;126511;1310;108931;-75
2021/12/09 04:26:11;;;;;;;37.10;17.20;;;;;;;-2.40;69.54;99604.90;126545;1311;108841;-75
2021/12/09 04:29:17;;;;;;;39.20;18.40;;;;;;;-2.44;69.64;99598.88;126861;1310;107360;-76
2021/12/09 04:32:23;;;;;;;43.00;20.20;;;;;;;-2.51;69.66;99603.26;126512;1311;108657;-76
2021/12/09 04:35:28;;;;;;;45.00;21.40;;;;;;;-2.57;69.78;99608.83;126462;1309;107579;-77
2021/12/09 04:38:34;;;;;;;44.10;21.40;;;;;;;-2.62;70.09;99604.59;126740;1313;108970;-78
2021/12/09 04:41:39;;;;;;;44.00;20.70;;;;;;;-2.63;70.14;99604.27;126985;1314;108720;-77
2021/12/09 04:44:45;;;;;;;37.20;17.70;;;;;;;-2.63;70.19;99602.58;126953;1310;108976;-75
2021/12/09 04:47:50;;;;;;;40.10;18.00;;;;;;;-2.56;69.93;99606.70;126756;1310;108771;-78
2021/12/09 04:50:56;;;;;;;41.80;21.00;;;;;;;-2.50;69.97;99601.45;126975;1311;109005;-76
2021/12/09 04:54:02;;;;;;;68.50;32.30;;;;;;;-2.48;70.00;99587.27;126983;1310;109015;-75
2021/12/09 04:57:08;;;;;;;89.40;37.20;;;;;;;-2.42;69.99;99577.19;126693;1314;109664;-76
2021/12/09 05:00:18;;;;;;;38.90;20.00;;;;;;;-2.41;69.88;99580.19;126729;1310;109049;-76
2021/12/09 05:03:24;;;;;;;38.60;19.50;;;;;;;-2.42;69.92;99580.98;126934;1310;108718;-78
2021/12/09 05:06:30;;;;;;;38.60;18.60;;;;;;;-2.42;69.87;99580.95;126699;1310;108988;-77
2021/12/09 05:09:39;;;;;;;40.70;19.90;;;;;;;-2.46;70.01;99588.89;126793;1310;108795;-76
2021/12/09 05:12:44;;;;;;;36.70;18.20;;;;;;;-2.52;70.16;99588.70;126560;1310;108722;-77
2021/12/09 05:15:50;;;;;;;36.00;17.80;;;;;;;-2.56;70.21;99580.91;126905;1314;106685;-77
2021/12/09 05:18:58;;;;;;;40.20;18.00;;;;;;;-2.62;70.29;99587.35;126689;1310;108798;-79
2021/12/09 05:22:04;;;;;;;40.70;18.30;;;;;;;-2.67;70.22;99594.61;126746;1310;108533;-76
2021/12/09 05:25:10;;;;;;;37.50;17.30;;;;;;;-2.65;70.33;99605.45;126893;1311;108646;-76
2021/12/09 05:28:17;;;;;;;33.60;15.90;;;;;;;-2.58;70.39;99598.95;126486;1310;108661;-77
2021/12/09 05:34:50;;;;;;;35.10;17.90;;;;;;;-2.44;70.23;99593.15;126660;1310;108880;-76
2021/12/09 05:37:56;;;;;;;40.70;18.90;;;;;;;-2.39;70.12;99589.34;126508;1311;108916;-77
2021/12/09 05:41:01;;;;;;;38.70;18.90;;;;;;;-2.42;70.33;99583.60;126516;1311;108881;-77
2021/12/09 05:44:08;;;;;;;36.80;18.70;;;;;;;-2.45;70.14;99583.09;126566;1310;108860;-78
2021/12/09 05:47:14;;;;;;;35.40;17.70;;;;;;;-2.49;70.33;99586.27;126771;1310;108739;-76
2021/12/09 05:50:19;;;;;;;34.70;17.10;;;;;;;-2.59;70.25;99585.78;126670;1310;109005;-75
2021/12/09 05:53:24;;;;;;;43.70;18.40;;;;;;;-2.66;70.70;99592.10;126631;1310;109937;-74
2021/12/09 05:56:30;;;;;;;43.30;19.10;;;;;;;-2.72;70.51;99597.84;126889;1310;108961;-75
2021/12/09 05:59:40;;;;;;;39.40;17.60;;;;;;;-2.71;70.82;99607.36;126662;1311;108902;-74
2021/12/09 06:02:46;;;;;;;40.80;18.20;;;;;;;-2.64;70.66;99604.01;126847;1310;108949;-74
2021/12/09 06:05:52;;;;;;;36.50;15.70;;;;;;;-2.54;70.51;99607.80;126863;1311;108789;-71
2021/12/09 06:08:58;;;;;;;37.40;17.30;;;;;;;-2.43;70.44;99613.96;126684;1310;108707;-72
2021/12/09 06:12:05;;;;;;;36.90;17.80;;;;;;;-2.42;70.45;99618.10;126922;1310;108723;-74
2021/12/09 06:15:11;;;;;;;42.40;18.90;;;;;;;-2.45;70.52;99625.91;126903;1314;109692;-74
2021/12/09 06:18:17;;;;;;;42.60;19.50;;;;;;;-2.44;70.48;99627.23;126950;1310;108838;-74
2021/12/09 06:21:24;;;;;;;42.60;20.20;;;;;;;-2.43;70.68;99628.59;126962;1310;109182;-73
2021/12/09 06:24:29;;;;;;;43.90;19.80;;;;;;;-2.47;70.33;99635.98;127006;1311;109041;-75
2021/12/09 06:27:35;;;;;;;46.30;19.80;;;;;;;-2.53;70.59;99643.98;126949;1310;106957;-73
2021/12/09 06:30:41;;;;;;;50.00;20.20;;;;;;;-2.54;70.83;99648.71;126530;1310;108991;-74
2021/12/09 06:33:46;;;;;;;49.70;20.80;;;;;;;-2.57;70.59;99647.67;127033;1310;109021;-74
2021/12/09 06:36:52;;;;;;;51.50;21.90;;;;;;;-2.63;71.07;99638.59;126898;1310;108858;-73
2021/12/09 06:39:57;;;;;;;41.80;19.00;;;;;;;-2.65;71.12;99634.34;126767;1310;108844;-73
2021/12/09 06:43:03;;;;;;;44.70;19.60;;;;;;;-2.64;71.11;99633.95;126531;1310;108263;-70
2021/12/09 06:46:10;;;;;;;33.30;15.20;;;;;;;-2.56;71.03;99623.23;126406;1311;109006;-73
2021/12/09 06:49:15;;;;;;;41.90;18.20;;;;;;;-2.45;71.01;99612.15;126364;1313;108778;-73
2021/12/09 06:52:21;;;;;;;39.30;17.90;;;;;;;-2.38;70.81;99604.44;126465;1310;108973;-72
2021/12/09 06:55:26;;;;;;;36.90;18.00;;;;;;;-2.33;70.67;99604.02;126452;1310;109371;-73
2021/12/09 06:58:32;;;;;;;40.60;18.80;;;;;;;-2.33;70.92;99599.46;126356;1310;108863;-76
2021/12/09 07:01:38;;;;;;;38.40;18.00;;;;;;;-2.34;70.82;99602.52;126406;1311;108936;-73
2021/12/09 07:04:43;;;;;;;36.00;16.60;;;;;;;-2.40;71.01;99631.56;126611;1311;107705;-73
2021/12/09 07:07:49;;;;;;;39.60;17.80;;;;;;;-2.48;70.96;99620.71;126379;1310;108712;-73
2021/12/09 07:10:55;;;;;;;37.40;17.50;;;;;;;-2.47;71.05;99617.33;126737;1310;108645;-73
2021/12/09 07:14:01;;;;;;;37.80;17.60;;;;;;;-2.47;71.16;99626.05;126563;1310;108972;-73
2021/12/09 07:17:07;;;;;;;44.20;19.10;;;;;;;-2.50;71.12;99632.44;126603;1313;108735;-74
2021/12/09 07:20:16;;;;;;;46.20;19.80;;;;;;;-2.54;71.51;99632.34;126740;1310;109030;-73
2021/12/09 07:23:21;;;;;;;42.50;19.00;;;;;;;-2.53;71.28;99641.55;126796;1310;108865;-71
2021/12/09 07:26:28;;;;;;;38.80;19.00;;;;;;;-2.48;71.41;99637.08;126707;1311;108831;-73
2021/12/09 07:29:34;;;;;;;46.10;19.50;;;;;;;-2.42;71.28;99629.94;126665;1310;107274;-74
2021/12/09 07:32:39;;;;;;;40.80;18.30;;;;;;;-2.37;71.18;99619.39;126674;1310;109034;-74
2021/12/09 07:35:44;;;;;;;42.40;19.00;;;;;;;-2.34;71.32;99630.70;126469;1314;181866;-74
2021/12/09 07:38:50;;;;;;;44.10;18.60;;;;;;;-2.30;71.38;99631.38;126348;1310;108732;-73
2021/12/09 07:41:56;;;;;;;36.60;17.40;;;;;;;-2.29;71.21;99625.38;126365;1314;108694;-73
2021/12/09 07:45:02;;;;;;;39.90;18.00;;;;;;;-2.27;71.21;99628.73;126776;1311;107134;-74
2021/12/09 07:48:07;;;;;;;36.80;17.70;;;;;;;-2.25;71.24;99623.77;126436;1310;108753;-72
2021/12/09 07:51:13;;;;;;;38.30;18.70;;;;;;;-2.25;71.42;99606.85;126729;1314;108862;-75
2021/12/09 07:54:19;;;;;;;41.40;18.70;;;;;;;-2.27;71.27;99594.62;126895;1310;107710;-75
2021/12/09 07:57:24;;;;;;;40.60;18.60;;;;;;;-2.31;71.57;99600.08;126785;1311;107320;-73
2021/12/09 08:00:32;;;;;;;39.10;17.30;;;;;;;-2.32;71.55;99606.02;126743;1310;108749;-75
2021/12/09 08:03:37;;;;;;;39.50;16.60;;;;;;;-2.28;71.47;99612.09;126790;1310;109035;-74
2021/12/09 08:06:49;;;;;;;40.10;16.60;;;;;;;-2.17;71.61;99612.48;126885;1311;109365;-74
2021/12/09 08:09:54;;;;;;;36.60;16.60;;;;;;;-2.07;71.66;99613.85;126495;1311;108901;-76
2021/12/09 08:13:00;;;;;;;50.90;22.70;;;;;;;-2.00;71.53;99617.44;126923;1310;108772;-74
2021/12/09 08:16:06;;;;;;;43.30;18.70;;;;;;;-1.95;71.46;99625.53;126701;1311;108807;-74
2021/12/09 08:19:13;;;;;;;38.30;17.90;;;;;;;-1.90;71.31;99634.33;126523;1310;108279;-74
2021/12/09 08:22:18;;;;;;;46.50;20.50;;;;;;;-1.85;71.33;99636.27;126767;1310;108735;-73
2021/12/09 08:25:25;;;;;;;44.50;20.50;;;;;;;-1.88;71.29;99636.60;127001;1310;108709;-73
2021/12/09 08:28:30;;;;;;;36.90;16.50;;;;;;;-1.92;71.28;99635.95;126851;1310;108720;-75
2021/12/09 08:31:39;;;;;;;37.10;16.50;;;;;;;-1.92;71.43;99631.61;126928;1310;108775;-74
2021/12/09 08:34:45;;;;;;;38.50;17.40;;;;;;;-1.91;71.49;99632.61;126618;1310;108645;-74
2021/12/09 08:37:54;;;;;;;35.00;17.50;;;;;;;-1.94;71.44;99632.44;126888;1310;107391;-73
2021/12/09 08:41:01;;;;;;;40.70;18.60;;;;;;;-2.02;71.37;99638.64;126871;1310;108698;-74
2021/12/09 08:44:07;;;;;;;39.00;17.10;;;;;;;-2.04;71.69;99643.62;126842;1310;108895;-73
2021/12/09 08:47:13;;;;;;;42.10;19.50;;;;;;;-1.98;71.61;99644.87;126866;1310;108762;-75
2021/12/09 08:50:22;;;;;;;42.20;18.60;;;;;;;-1.87;71.54;99656.95;126747;1311;108731;-74
2021/12/09 08:53:28;;;;;;;40.80;18.00;;;;;;;-1.76;71.40;99652.66;126798;1311;108875;-73
2021/12/09 08:56:34;;;;;;;36.20;18.80;;;;;;;-1.69;71.33;99661.14;126704;1311;106742;-74
2021/12/09 08:59:39;;;;;;;42.50;21.90;;;;;;;-1.65;71.33;99669.63;126671;1311;107154;-75
2021/12/09 09:02:47;;;;;;;46.00;24.80;;;;;;;-1.65;71.32;99671.16;126506;1311;108926;-74
2021/12/09 09:05:52;;;;;;;44.30;21.70;;;;;;;-1.70;71.37;99672.36;126630;1310;107769;-74
2021/12/09 09:08:58;;;;;;;41.80;20.60;;;;;;;-1.70;71.36;99667.86;126477;1310;108779;-74
2021/12/09 09:12:06;;;;;;;38.40;18.50;;;;;;;-1.69;71.26;99653.84;126569;1310;108728;-73
2021/12/09 09:15:15;;;;;;;41.80;20.00;;;;;;;-1.65;71.36;99645.75;126576;1311;108783;-73
2021/12/09 09:18:21;;;;;;;46.00;20.30;;;;;;;-1.61;71.52;99647.91;126604;1310;107704;-74
2021/12/09 09:21:28;;;;;;;50.00;21.90;;;;;;;-1.60;71.56;99644.02;126964;1311;107488;-74
2021/12/09 09:24:34;;;;;;;48.10;21.40;;;;;;;-1.51;71.47;99644.07;126961;1311;106771;-74
2021/12/09 09:27:39;;;;;;;42.60;19.40;;;;;;;-1.43;71.73;99648.83;126991;1310;107632;-74
2021/12/09 09:30:52;;;;;;;39.30;19.20;;;;;;;-1.29;71.34;99637.98;126895;1310;108890;-74
2021/12/09 09:33:59;;;;;;;41.40;19.70;;;;;;;-1.13;71.26;99639.14;126759;1310;108765;-73
2021/12/09 09:37:05;;;;;;;39.80;18.60;;;;;;;-0.96;71.27;99632.52;126568;1310;108807;-74
2021/12/09 09:40:15;;;;;;;39.40;19.10;;;;;;;-0.82;71.15;99625.86;126347;1311;108971;-74
2021/12/09 09:43:32;;;;;;;40.40;19.70;;;;;;;-0.68;71.14;99621.71;126645;1311;108643;-73
2021/12/09 09:46:37;;;;;;;44.20;20.60;;;;;;;-0.51;71.03;99618.01;126599;1310;108720;-74
2021/12/09 09:49:43;;;;;;;46.20;22.20;;;;;;;-0.44;70.68;99616.83;126777;1310;108945;-75
2021/12/09 09:52:49;;;;;;;40.40;20.60;;;;;;;-0.45;70.60;99610.80;126344;1310;108720;-74
2021/12/09 09:55:54;;;;;;;39.10;19.40;;;;;;;-0.44;70.74;99612.60;126614;1310;108855;-74
2021/12/09 09:59:04;;;;;;;40.80;19.10;;;;;;;-0.48;70.42;99612.73;126708;1311;108795;-73
2021/12/09 10:02:14;;;;;;;40.50;20.20;;;;;;;-0.54;70.74;99613.09;126501;1311;108709;-74
2021/12/09 10:05:22;;;;;;;42.60;21.70;;;;;;;-0.53;70.71;99608.17;126549;1314;107884;-74
2021/12/09 10:13:00;;;;;;;36.60;18.40;;;;;;;-0.60;70.71;99608.23;127063;1314;108589;-73
2021/12/09 10:16:15;;;;;;;39.00;19.20;;;;;;;-0.63;70.87;99604.07;126418;1310;109009;-72
2021/12/09 10:19:23;;;;;;;43.50;20.60;;;;;;;-0.67;70.61;99593.83;126588;1310;109013;-74
2021/12/09 10:27:04;;;;;;;39.80;19.10;;;;;;;-0.57;70.76;99594.95;126861;1310;109177;-74
2021/12/09 10:30:20;;;;;;;40.60;18.80;;;;;;;-0.55;70.70;99589.55;126792;1310;107474;-73
2021/12/09 10:33:25;;;;;;;42.80;20.80;;;;;;;-0.45;70.70;99586.67;126844;1310;108828;-74
2021/12/09 10:41:25;;;;;;;39.70;20.00;;;;;;;-0.31;70.25;99564.45;126779;1310;109181;-74
2021/12/09 10:44:41;;;;;;;43.30;20.80;;;;;;;-0.30;70.22;99555.30;126718;1310;108800;-72
2021/12/09 10:47:53;;;;;;;38.60;20.40;;;;;;;-0.27;70.53;99565.25;126852;1311;108711;-74
2021/12/09 10:51:13;;;;;;;48.60;24.70;;;;;;;-0.22;70.28;99566.86;127147;1310;108820;-74
2021/12/09 10:54:33;;;;;;;50.10;24.70;;;;;;;-0.25;70.11;99563.71;126851;1310;108774;-74
2021/12/09 10:57:40;;;;;;;50.70;23.80;;;;;;;-0.30;70.05;99561.10;126942;1314;108696;-74
2021/12/09 11:00:52;;;;;;;56.70;25.80;;;;;;;-0.31;70.31;99549.96;126918;1310;107724;-76
2021/12/09 11:04:00;;;;;;;80.90;30.60;;;;;;;-0.30;70.26;99535.02;127018;1311;108759;-74
2021/12/09 11:07:28;;;;;;;100.70;32.90;;;;;;;-0.32;70.18;99525.20;126797;1310;108709;-75
2021/12/09 11:10:34;;;;;;;67.50;26.70;;;;;;;-0.31;70.44;99527.91;126742;1310;108816;-74
2021/12/09 11:13:46;;;;;;;94.20;32.40;;;;;;;-0.31;70.21;99527.54;126504;1310;108745;-75
2021/12/09 11:17:03;;;;;;;87.10;31.50;;;;;;;-0.26;70.26;99521.64;126479;1310;109142;-74
2021/12/09 11:20:44;;;;;;;102.80;32.30;;;;;;;-0.20;70.26;99522.66;126641;1310;108857;-74
2021/12/09 11:23:56;;;;;;;90.50;30.50;;;;;;;-0.00;70.34;99522.36;126231;1316;108881;-74
2021/12/09 11:27:03;;;;;;;51.20;23.10;;;;;;;0.21;70.32;99525.15;125787;1316;108991;-76
2021/12/09 11:30:14;;;;;;;96.40;30.70;;;;;;;0.41;70.08;99516.07;126580;1310;107726;-74
2021/12/09 11:33:33;;;;;;;112.80;32.20;;;;;;;0.53;69.90;99509.64;126501;1311;108752;-75
2021/12/09 11:36:45;;;;;;;119.20;34.80;;;;;;;0.58;69.69;99502.58;126501;1311;108872;-74
2021/12/09 11:39:51;;;;;;;118.70;33.60;;;;;;;0.69;69.77;99504.08;126570;1310;108706;-75
2021/12/09 11:43:00;;;;;;;71.80;28.00;;;;;;;0.75;69.59;99514.73;126531;1309;108812;-75
2021/12/09 11:46:07;;;;;;;54.10;24.20;;;;;;;0.67;69.49;99513.05;126454;1310;108784;-74
2021/12/09 11:49:13;;;;;;;52.10;25.00;;;;;;;0.56;69.67;99518.73;126521;1310;108659;-74
2021/12/09 11:52:20;;;;;;;54.60;25.90;;;;;;;0.46;69.63;99522.66;126696;1313;108847;-75
2021/12/09 11:55:33;;;;;;;52.50;24.70;;;;;;;0.37;69.77;99519.46;126924;1313;108784;-74
2021/12/09 11:58:54;;;;;;;82.40;34.40;;;;;;;0.30;69.99;99507.19;127007;1310;109048;-75
2021/12/09 12:12:47;;;;;;;55.40;26.50;;;;;;;0.05;70.25;99487.95;126706;1310;108764;-74
2021/12/09 12:15:57;;;;;;;59.60;28.30;;;;;;;-0.01;70.19;99484.67;126913;1310;108954;-74
2021/12/09 12:19:11;;;;;;;60.50;28.90;;;;;;;-0.02;70.17;99491.83;126786;1310;108707;-74
2021/12/09 12:22:48;;;;;;;48.00;23.70;;;;;;;0.01;70.41;99490.66;126605;1310;108705;-74
2021/12/09 12:30:00;;;;;;;49.10;25.90;;;;;;;0.10;70.04;99484.29;126114;1319;108976;-74
2021/12/09 12:33:35;;;;;;;44.10;22.90;;;;;;;0.12;70.31;99469.08;126188;1316;108648;-74
2021/12/09 12:37:09;;;;;;;46.90;23.80;;;;;;;0.12;70.13;99471.14;126664;1314;109007;-73
2021/12/09 12:40:17;;;;;;;43.70;22.40;;;;;;;0.08;70.40;99470.41;126461;1314;108960;-74
2021/12/09 12:43:32;;;;;;;45.70;22.90;;;;;;;0.02;70.29;99472.38;127506;1310;107716;-74
2021/12/09 12:46:51;;;;;;;47.00;22.40;;;;;;;-0.07;70.25;99474.38;127217;1310;108601;-75
2021/12/09 12:50:11;;;;;;;40.60;21.80;;;;;;;-0.10;70.38;99462.35;126835;1310;108578;-74
2021/12/09 12:53:40;;;;;;;37.50;19.90;;;;;;;-0.15;70.52;99455.73;126900;1314;108914;-74
2021/12/09 12:56:53;;;;;;;37.70;19.60;;;;;;;-0.21;70.59;99445.62;126847;1310;108694;-74
2021/12/09 13:00:17;;;;;;;48.00;22.10;;;;;;;-0.30;70.55;99447.15;126512;1311;108766;-73
2021/12/09 13:03:35;;;;;;;74.40;32.70;;;;;;;-0.32;70.79;99450.94;126910;1310;108655;-76
2021/12/09 13:06:49;;;;;;;35.70;17.90;;;;;;;-0.27;70.68;99459.29;126788;1311;109690;-74
2021/12/09 13:10:24;;;;;;;44.60;20.50;;;;;;;-0.24;70.74;99468.34;126980;1314;108769;-74
2021/12/09 13:13:42;;;;;;;41.60;21.80;;;;;;;-0.21;70.72;99480.60;126968;1310;108690;-74
2021/12/09 13:17:04;;;;;;;43.30;22.00;;;;;;;-0.18;70.90;99479.48;126814;1311;108752;-74
2021/12/09 13:20:28;;;;;;;43.70;22.60;;;;;;;-0.13;70.85;99464.99;126556;1311;108687;-73
2021/12/09 13:28:09;;;;;;;41.90;21.40;;;;;;;-0.14;70.87;99438.71;126462;1314;109211;-74
2021/12/09 13:31:43;;;;;;;39.60;19.60;;;;;;;-0.18;70.83;99441.23;126710;1311;108756;-73
2021/12/09 13:35:04;;;;;;;41.30;20.80;;;;;;;-0.23;70.86;99455.71;126728;1311;108914;-74
2021/12/09 13:38:33;;;;;;;40.80;20.10;;;;;;;-0.27;71.06;99463.88;126749;1311;108976;-75
2021/12/09 13:48:46;;;;;;;40.70;19.20;;;;;;;-0.29;71.09;99462.95;126498;1311;108922;-73
2021/12/09 13:51:57;;;;;;;43.50;20.60;;;;;;;-0.22;71.14;99459.88;126474;1310;108861;-73
2021/12/09 13:55:08;;;;;;;44.00;21.60;;;;;;;-0.18;71.14;99467.12;126508;1311;108414;-74
2021/12/09 13:58:21;;;;;;;40.50;20.30;;;;;;;-0.19;71.16;99474.35;126702;1310;108612;-74
2021/12/09 14:01:27;;;;;;;46.50;22.20;;;;;;;-0.18;71.28;99476.23;126489;1311;108728;-74
2021/12/09 14:04:37;;;;;;;47.20;20.30;;;;;;;-0.18;71.22;99478.44;126784;1310;109607;-74
2021/12/09 14:07:53;;;;;;;44.00;21.40;;;;;;;-0.21;71.32;99476.58;126646;1314;108591;-74
2021/12/09 14:11:05;;;;;;;44.10;21.30;;;;;;;-0.25;71.20;99476.48;126904;1310;108983;-73
2021/12/09 14:14:15;;;;;;;42.10;21.70;;;;;;;-0.31;71.28;99484.20;126867;1314;108593;-74
2021/12/09 14:17:24;;;;;;;45.20;22.70;;;;;;;-0.34;71.15;99480.77;126625;1311;108721;-73
2021/12/09 14:20:29;;;;;;;68.50;28.30;;;;;;;-0.38;71.43;99470.86;126690;1314;107609;-74
2021/12/09 14:23:35;;;;;;;55.90;24.50;;;;;;;-0.41;71.54;99471.58;126402;1311;108770;-74
2021/12/09 14:26:43;;;;;;;53.80;23.10;;;;;;;-0.40;71.52;99472.94;126610;1313;108969;-73
2021/12/09 14:29:51;;;;;;;46.00;20.20;;;;;;;-0.37;71.61;99476.80;126517;1310;108774;-73
2021/12/09 14:33:01;;;;;;;42.70;19.70;;;;;;;-0.34;71.61;99470.98;126651;1310;108811;-73
2021/12/09 14:36:10;;;;;;;41.80;19.90;;;;;;;-0.35;71.81;99473.31;126432;1311;108883;-74
2021/12/09 14:39:18;;;;;;;44.50;22.30;;;;;;;-0.39;71.66;99462.92;126655;1314;108718;-74
2021/12/09 14:42:25;;;;;;;40.00;20.10;;;;;;;-0.41;71.87;99465.16;126886;1310;108952;-75
2021/12/09 14:45:33;;;;;;;47.30;23.10;;;;;;;-0.46;71.71;99474.23;126703;1310;108894;-73
2021/12/09 14:48:40;;;;;;;37.70;18.60;;;;;;;-0.50;71.73;99494.41;126941;1310;108849;-74
2021/12/09 14:51:47;;;;;;;47.60;21.90;;;;;;;-0.53;71.87;99476.78;126517;1310;109178;-72